Time;durP1;ratioP1;P1;durP2;ratioP2;P2;SDS_P1;SDS_P2;PMS_P1;PMS_P2;Temp;Humidity;BMP_temperature;BMP_pressure;BME280_temperature;BME280_humidity;BME280_pressure;Samples;Min_cycle;Max_cycle;Signal;HPM_P1;HPM_P2
2022/02/25 00:01:49;;;;;;;26.40;14.43;;;;;;;-0.39;61.16;95799.03;5086276;28;20032;-77
2022/02/25 00:04:14;;;;;;;31.25;15.38;;;;;;;-0.42;60.32;95804.50;5087347;28;20044;-77
2022/02/25 00:06:40;;;;;;;26.50;14.48;;;;;;;-0.51;59.97;95806.78;5087348;28;20020;-77
2022/02/25 00:09:08;;;;;;;26.10;14.18;;;;;;;-0.56;60.46;95802.75;5084790;28;20024;-78
2022/02/25 00:11:33;;;;;;;27.00;14.32;;;;;;;-0.57;60.15;95791.38;5086735;28;20032;-77
2022/02/25 00:13:59;;;;;;;25.42;14.63;;;;;;;-0.56;59.75;95793.06;5085764;28;20708;-77
2022/02/25 00:16:24;;;;;;;25.55;13.65;;;;;;;-0.56;60.19;95792.19;5086448;28;20028;-78
2022/02/25 00:18:50;;;;;;;24.85;13.80;;;;;;;-0.63;60.54;95789.13;5085607;28;20032;-79
2022/02/25 00:21:15;;;;;;;22.90;14.07;;;;;;;-0.72;61.09;95798.47;5086130;28;20040;-77
2022/02/25 00:23:41;;;;;;;25.33;13.55;;;;;;;-0.73;60.99;95795.94;5085138;28;20064;-77
2022/02/25 00:26:06;;;;;;;29.65;14.55;;;;;;;-0.80;61.19;95796.31;5068432;28;20020;-77
2022/02/25 00:28:32;;;;;;;28.00;14.73;;;;;;;-0.83;61.27;95782.50;5086037;28;20035;-77
2022/02/25 00:30:57;;;;;;;30.83;14.95;;;;;;;-0.90;61.52;95790.78;5084180;28;20608;-77
2022/02/25 00:33:22;;;;;;;34.85;16.95;;;;;;;-0.90;61.65;95790.78;5087147;28;20035;-78
2022/02/25 00:35:49;;;;;;;32.17;15.25;;;;;;;-0.89;61.45;95786.38;5083819;28;20181;-76
2022/02/25 00:38:16;;;;;;;32.50;16.27;;;;;;;-0.88;61.58;95780.16;5085983;28;20019;-78
2022/02/25 00:40:41;;;;;;;39.65;16.75;;;;;;;-0.94;61.84;95773.50;5084430;28;20036;-78
2022/02/25 00:43:07;;;;;;;35.67;16.50;;;;;;;-0.93;61.57;95775.19;5086776;28;20081;-78
2022/02/25 00:45:32;;;;;;;34.50;17.13;;;;;;;-0.97;61.79;95775.47;5086615;28;20085;-77
2022/02/25 00:47:58;;;;;;;38.42;17.52;;;;;;;-1.00;62.27;95768.63;5084387;28;20066;-79
2022/02/25 00:50:23;;;;;;;38.83;15.65;;;;;;;-0.94;62.53;95754.22;5087153;28;20077;-77
2022/02/25 00:52:49;;;;;;;28.80;15.23;;;;;;;-0.92;62.25;95753.16;5085090;28;20040;-77
2022/02/25 00:55:14;;;;;;;33.10;16.02;;;;;;;-0.92;62.38;95745.25;5086648;28;20048;-76
2022/02/25 00:57:46;;;;;;;40.90;16.95;;;;;;;-0.93;62.21;95754.13;5083922;28;20032;-77
2022/02/25 01:00:14;;;;;;;28.38;14.40;;;;;;;-0.96;62.54;95746.41;5086727;28;20024;-78
2022/02/25 01:02:40;;;;;;;35.53;14.85;;;;;;;-1.00;62.90;95748.38;5084844;28;20375;-77
2022/02/25 01:05:05;;;;;;;30.98;15.13;;;;;;;-0.92;62.41;95754.97;5085764;28;20161;-78
2022/02/25 01:07:31;;;;;;;34.63;15.15;;;;;;;-0.88;62.31;95756.44;5086732;28;20028;-77
2022/02/25 01:09:56;;;;;;;45.53;19.08;;;;;;;-0.88;61.95;95757.31;5087007;28;20497;-77
2022/02/25 01:12:21;;;;;;;60.35;23.33;;;;;;;-0.87;61.78;95759.00;5090816;28;20051;-78
2022/02/25 01:14:47;;;;;;;70.60;25.38;;;;;;;-0.90;61.85;95755.69;5089043;28;20024;-77
2022/02/25 01:17:13;;;;;;;50.65;21.35;;;;;;;-0.92;61.99;95747.06;5090996;28;20387;-77
2022/02/25 01:19:38;;;;;;;36.72;18.02;;;;;;;-0.94;61.61;95747.16;5088285;28;20028;-77
2022/02/25 01:22:04;;;;;;;43.28;16.85;;;;;;;-0.97;62.02;95746.50;5090525;28;20085;-76
2022/02/25 01:24:29;;;;;;;40.08;16.85;;;;;;;-0.98;62.00;95740.41;5090525;28;20020;-77
2022/02/25 01:26:54;;;;;;;33.30;16.23;;;;;;;-1.03;61.92;95745.94;5088229;28;20401;-77
2022/02/25 01:29:20;;;;;;;46.30;18.13;;;;;;;-0.95;61.89;95736.75;5089313;28;20410;-78
2022/02/25 01:31:46;;;;;;;36.25;16.77;;;;;;;-0.93;62.02;95738.31;5087566;28;20024;-77
2022/02/25 01:34:11;;;;;;;37.40;16.80;;;;;;;-1.01;61.83;95736.19;5090692;28;20032;-77
2022/02/25 01:36:37;;;;;;;35.15;16.90;;;;;;;-1.08;61.65;95731.41;5089010;28;20026;-78
2022/02/25 01:39:03;;;;;;;38.28;18.65;;;;;;;-1.11;61.92;95724.53;5090972;28;20024;-78
2022/02/25 01:41:30;;;;;;;37.55;17.42;;;;;;;-1.19;61.97;95724.19;5071030;28;20020;-78
2022/02/25 01:44:20;;;;;;;39.28;17.98;;;;;;;-1.28;62.81;95730.88;5090157;28;20270;-79
2022/02/25 01:46:50;;;;;;;36.92;16.80;;;;;;;-1.30;63.24;95730.97;5090735;28;20047;-77
2022/02/25 01:49:15;;;;;;;35.35;16.40;;;;;;;-1.29;63.25;95727.38;5088587;28;20456;-76
2022/02/25 01:51:41;;;;;;;36.85;16.58;;;;;;;-1.29;62.56;95727.38;5089681;28;20022;-77
2022/02/25 01:54:06;;;;;;;32.58;16.10;;;;;;;-1.35;63.18;95724.31;5088370;28;20142;-77
2022/02/25 01:56:32;;;;;;;28.75;14.60;;;;;;;-1.39;63.19;95727.09;5072073;28;20024;-76
2022/02/25 01:58:57;;;;;;;38.63;16.45;;;;;;;-1.41;63.11;95720.25;5087957;28;20131;-77
2022/02/25 02:01:23;;;;;;;32.25;16.50;;;;;;;-1.40;63.25;95720.16;5089401;28;20025;-76
2022/02/25 02:03:51;;;;;;;29.60;14.15;;;;;;;-1.41;62.69;95722.91;5071897;28;20123;-77
2022/02/25 02:06:16;;;;;;;35.60;15.07;;;;;;;-1.42;62.33;95719.41;5087387;28;20493;-77
2022/02/25 02:08:42;;;;;;;33.63;14.35;;;;;;;-1.42;62.73;95721.22;5088891;28;20028;-78
2022/02/25 02:11:07;;;;;;;29.90;14.55;;;;;;;-1.45;63.07;95714.34;5087124;28;20072;-78
2022/02/25 02:13:32;;;;;;;24.75;13.88;;;;;;;-1.47;62.82;95718.88;5088771;28;20035;-78
2022/02/25 02:15:58;;;;;;;32.17;14.50;;;;;;;-1.50;62.91;95721.69;5086912;28;20073;-78
2022/02/25 02:18:24;;;;;;;41.55;17.80;;;;;;;-1.40;62.36;95714.91;5089850;28;20077;-77
2022/02/25 02:20:49;;;;;;;56.17;20.52;;;;;;;-1.40;62.21;95709.66;5086985;28;20089;-79
2022/02/25 02:23:15;;;;;;;35.72;14.35;;;;;;;-1.45;61.56;95716.97;5089346;28;20035;-77
2022/02/25 02:25:40;;;;;;;34.03;16.10;;;;;;;-1.46;61.48;95715.28;5071542;28;20023;-77
2022/02/25 02:28:18;;;;;;;32.40;14.30;;;;;;;-1.47;61.59;95713.63;5086726;28;20061;-78
2022/02/25 02:30:44;;;;;;;32.03;15.05;;;;;;;-1.51;61.85;95706.84;5089964;28;20021;-77
2022/02/25 02:33:09;;;;;;;21.77;13.52;;;;;;;-1.53;62.32;95701.66;5069586;28;20093;-77
2022/02/25 02:35:35;;;;;;;25.88;11.85;;;;;;;-1.55;62.74;95700.94;5089831;28;20031;-77
2022/02/25 02:38:00;;;;;;;21.92;11.65;;;;;;;-1.52;62.68;95699.88;5088533;28;20042;-79
2022/02/25 02:40:26;;;;;;;23.08;11.48;;;;;;;-1.54;62.45;95701.75;5089020;28;20031;-77
2022/02/25 02:42:52;;;;;;;22.35;11.55;;;;;;;-1.52;62.50;95702.53;5088757;28;20051;-78
2022/02/25 02:45:17;;;;;;;21.13;11.07;;;;;;;-1.51;62.52;95691.91;5088551;28;20039;-77
2022/02/25 02:47:43;;;;;;;19.55;10.88;;;;;;;-1.50;61.67;95688.31;5089843;28;20433;-77
2022/02/25 02:50:09;;;;;;;22.73;10.82;;;;;;;-1.55;62.24;95679.03;5086397;28;20016;-78
2022/02/25 02:52:35;;;;;;;21.98;10.75;;;;;;;-1.57;62.39;95686.16;5087936;28;20020;-77
2022/02/25 02:55:00;;;;;;;20.70;12.10;;;;;;;-1.65;62.54;95684.03;5087060;28;20071;-78
2022/02/25 02:57:26;;;;;;;23.27;11.20;;;;;;;-1.69;62.31;95687.81;5089176;28;20024;-77
2022/02/25 02:59:51;;;;;;;18.27;11.05;;;;;;;-1.67;62.30;95697.28;5069436;28;20031;-79
2022/02/25 03:02:17;;;;;;;18.48;9.73;;;;;;;-1.67;62.78;95694.66;5088629;28;20024;-77
2022/02/25 03:04:42;;;;;;;19.05;9.20;;;;;;;-1.63;62.50;95692.69;5070451;28;20059;-78
2022/02/25 03:07:10;;;;;;;20.73;10.65;;;;;;;-1.61;62.43;95690.78;5086664;28;20047;-77
2022/02/25 03:09:35;;;;;;;20.15;10.00;;;;;;;-1.57;62.08;95686.16;5087529;28;20577;-77
2022/02/25 03:12:02;;;;;;;19.05;10.68;;;;;;;-1.50;62.21;95688.31;5087462;28;20020;-78
2022/02/25 03:14:28;;;;;;;18.45;9.88;;;;;;;-1.48;61.62;95682.97;5071448;28;20103;-78
2022/02/25 03:16:53;;;;;;;19.58;9.85;;;;;;;-1.52;61.89;95684.97;5087082;28;20395;-77
2022/02/25 03:19:19;;;;;;;17.73;10.05;;;;;;;-1.54;62.14;95680.72;5087360;28;20024;-77
2022/02/25 03:21:44;;;;;;;20.65;10.32;;;;;;;-1.57;61.99;95680.91;5086461;28;20031;-78
2022/02/25 03:24:10;;;;;;;17.95;9.95;;;;;;;-1.53;61.66;95685.06;5086374;28;20016;-77
2022/02/25 03:26:36;;;;;;;19.27;10.13;;;;;;;-1.50;61.99;95688.31;5087443;28;20452;-77
2022/02/25 03:29:01;;;;;;;29.70;16.80;;;;;;;-1.50;61.26;95688.31;5087273;28;20111;-78
2022/02/25 03:31:27;;;;;;;22.13;12.35;;;;;;;-1.53;60.93;95682.44;5088528;28;20060;-77
2022/02/25 03:33:52;;;;;;;21.17;12.25;;;;;;;-1.66;61.02;95688.44;5085965;28;20024;-78
2022/02/25 03:36:17;;;;;;;20.20;11.45;;;;;;;-1.67;60.99;95697.28;5088503;28;20019;-78
2022/02/25 03:38:43;;;;;;;23.20;10.95;;;;;;;-1.69;61.75;95704.41;5087138;28;20339;-77
2022/02/25 03:41:10;;;;;;;22.63;11.10;;;;;;;-1.68;61.91;95698.22;5088534;28;20035;-77
2022/02/25 03:43:36;;;;;;;23.77;11.40;;;;;;;-1.71;62.31;95706.31;5087361;28;20055;-77
2022/02/25 03:46:02;;;;;;;21.77;10.40;;;;;;;-1.72;62.15;95712.47;5087562;28;20459;-78
2022/02/25 03:48:27;;;;;;;25.38;11.48;;;;;;;-1.73;62.30;95705.53;5086720;28;20417;-78
2022/02/25 03:50:53;;;;;;;27.50;11.45;;;;;;;-1.74;62.53;95703.84;5068313;28;20124;-78
2022/02/25 03:53:18;;;;;;;20.65;10.93;;;;;;;-1.75;62.51;95705.63;5087791;28;20028;-77
2022/02/25 03:55:43;;;;;;;24.52;10.75;;;;;;;-1.79;62.45;95714.63;5086354;28;20028;-78
2022/02/25 03:58:09;;;;;;;18.35;9.98;;;;;;;-1.74;62.35;95714.34;5086925;28;20020;-78
2022/02/25 04:00:34;;;;;;;21.10;10.18;;;;;;;-1.80;62.70;95718.22;5086710;28;20020;-78
2022/02/25 04:03:00;;;;;;;23.08;10.65;;;;;;;-1.78;62.75;95721.59;5086237;28;20462;-78
2022/02/25 04:05:25;;;;;;;20.25;10.25;;;;;;;-1.78;62.62;95726.00;5087136;28;20035;-78
2022/02/25 04:07:52;;;;;;;21.33;10.90;;;;;;;-1.81;61.36;95736.72;5068294;28;20024;-78
2022/02/25 04:10:18;;;;;;;21.13;9.95;;;;;;;-1.93;62.17;95728.63;5053604;28;20032;-77
2022/02/25 04:12:43;;;;;;;21.45;9.88;;;;;;;-1.93;62.56;95733.03;5067320;28;20039;-78
2022/02/25 04:15:09;;;;;;;18.75;10.25;;;;;;;-1.85;62.01;95729.97;5087801;28;20027;-78
2022/02/25 04:17:34;;;;;;;20.58;10.80;;;;;;;-1.88;62.89;95736.25;5085604;28;20024;-79
2022/02/25 04:20:00;;;;;;;19.15;10.10;;;;;;;-1.87;62.53;95728.25;5087668;28;20029;-78
2022/02/25 04:22:25;;;;;;;19.10;9.77;;;;;;;-1.82;62.28;95714.00;5085004;28;20380;-77
2022/02/25 04:24:51;;;;;;;19.52;9.38;;;;;;;-1.80;61.13;95717.38;5086939;28;20103;-77
2022/02/25 04:27:16;;;;;;;17.48;9.68;;;;;;;-1.81;60.26;95713.06;5085855;28;20024;-78
2022/02/25 04:29:42;;;;;;;17.35;8.93;;;;;;;-1.87;60.95;95717.75;5086099;28;20024;-78
2022/02/25 04:32:08;;;;;;;17.30;9.25;;;;;;;-1.97;61.10;95711.38;5087359;28;20028;-78
2022/02/25 04:34:33;;;;;;;21.15;10.52;;;;;;;-1.97;60.97;95715.78;5085080;28;20028;-77
2022/02/25 04:36:59;;;;;;;19.95;9.30;;;;;;;-2.00;61.05;95717.63;5086028;28;20028;-78
2022/02/25 04:39:24;;;;;;;16.08;9.05;;;;;;;-2.07;60.61;95716.31;5085804;28;20024;-78
2022/02/25 04:41:50;;;;;;;16.67;9.05;;;;;;;-2.15;61.10;95715.94;5068946;28;20123;-78
2022/02/25 04:44:15;;;;;;;18.30;8.68;;;;;;;-2.21;61.53;95704.03;5086059;28;20028;-78
2022/02/25 04:46:41;;;;;;;16.20;9.50;;;;;;;-2.22;61.65;95699.69;5085183;28;20020;-78
2022/02/25 04:49:06;;;;;;;15.98;9.35;;;;;;;-2.23;61.49;95700.63;5086787;28;20081;-78
2022/02/25 04:51:32;;;;;;;17.92;9.40;;;;;;;-2.25;62.13;95703.34;5067276;28;20491;-77
2022/02/25 04:53:58;;;;;;;17.50;8.95;;;;;;;-2.33;62.80;95697.69;5086960;28;20132;-79
2022/02/25 04:56:24;;;;;;;20.52;9.88;;;;;;;-2.29;62.26;95698.38;5085539;28;20044;-77
2022/02/25 04:58:50;;;;;;;20.40;9.80;;;;;;;-2.26;62.40;95698.19;5085554;28;20035;-78
2022/02/25 05:01:15;;;;;;;16.52;8.55;;;;;;;-2.31;63.15;95694.97;5067094;28;20093;-78
2022/02/25 05:03:41;;;;;;;16.08;9.23;;;;;;;-2.33;64.92;95695.06;5086606;28;20024;-77
2022/02/25 05:06:06;;;;;;;16.00;9.35;;;;;;;-2.24;65.20;95684.00;5086683;28;20405;-78
2022/02/25 05:08:31;;;;;;;21.30;9.75;;;;;;;-2.17;65.09;95689.75;5084653;28;20379;-78
2022/02/25 05:10:57;;;;;;;16.98;8.75;;;;;;;-2.09;64.62;95694.53;5086992;28;20029;-78
2022/02/25 05:13:22;;;;;;;17.02;9.48;;;;;;;-2.08;63.91;95704.09;5083746;28;20313;-78
2022/02/25 05:21:16;;;;;;;17.65;9.90;;;;;;;-1.94;62.87;95694.53;5085518;28;20109;-78
2022/02/25 05:23:41;;;;;;;18.35;9.80;;;;;;;-1.84;62.40;95703.59;5086202;28;20016;-79
2022/02/25 05:26:07;;;;;;;18.00;9.93;;;;;;;-1.81;61.04;95698.13;5067262;28;20449;-79
2022/02/25 05:28:32;;;;;;;18.02;10.40;;;;;;;-1.75;60.78;95695.13;5085535;28;20020;-78
2022/02/25 05:30:58;;;;;;;19.98;10.80;;;;;;;-1.60;60.87;95697.75;5084613;28;20028;-78
2022/02/25 05:33:23;;;;;;;29.08;12.43;;;;;;;-1.58;60.48;95702.91;5086452;28;20028;-76
2022/02/25 05:35:49;;;;;;;27.02;13.07;;;;;;;-1.53;60.77;95704.28;5083383;28;20500;-78
2022/02/25 05:38:14;;;;;;;25.10;13.80;;;;;;;-1.39;60.47;95715.75;5086353;28;20475;-77
2022/02/25 05:40:40;;;;;;;22.70;11.23;;;;;;;-1.27;59.42;95701.81;5084489;28;20035;-78
2022/02/25 05:43:05;;;;;;;26.30;11.90;;;;;;;-1.18;58.97;95710.94;5084092;28;20368;-78
2022/02/25 05:45:31;;;;;;;20.20;10.95;;;;;;;-1.08;58.64;95712.97;5086980;28;20628;-80
2022/02/25 05:47:56;;;;;;;29.98;12.55;;;;;;;-0.94;58.54;95720.84;5083449;28;20539;-78
2022/02/25 05:50:22;;;;;;;29.60;13.27;;;;;;;-0.87;58.77;95722.13;5085010;28;20486;-78
2022/02/25 05:52:48;;;;;;;36.13;16.60;;;;;;;-0.70;57.94;95721.97;5066722;28;20039;-79
2022/02/25 05:55:14;;;;;;;41.67;20.73;;;;;;;-0.67;57.15;95724.41;5085125;28;20040;-78
2022/02/25 05:57:40;;;;;;;37.45;19.10;;;;;;;-0.77;57.31;95717.09;5087595;28;20032;-78
2022/02/25 06:00:07;;;;;;;33.05;16.02;;;;;;;-0.70;57.05;95722.81;5088082;28;20400;-77
2022/02/25 06:02:33;;;;;;;24.85;15.45;;;;;;;-0.69;57.22;95713.97;5088190;28;20032;-78
2022/02/25 06:04:58;;;;;;;30.58;14.18;;;;;;;-0.50;56.69;95710.13;5070450;28;20024;-77
2022/02/25 06:07:24;;;;;;;22.75;12.95;;;;;;;-0.33;55.89;95713.41;5088550;28;20031;-80
2022/02/25 06:09:49;;;;;;;35.92;15.38;;;;;;;-0.19;55.69;95717.75;5086953;28;20116;-80
2022/02/25 06:12:15;;;;;;;39.13;16.15;;;;;;;-0.15;55.63;95708.72;5089593;28;20024;-78
2022/02/25 06:14:40;;;;;;;38.03;16.95;;;;;;;-0.13;55.46;95714.75;5069920;28;20103;-82
2022/02/25 06:17:06;;;;;;;32.33;16.52;;;;;;;-0.19;56.49;95709.84;5089455;28;20111;-78
2022/02/25 06:19:31;;;;;;;34.38;16.42;;;;;;;-0.16;56.64;95713.13;5087506;28;20028;-79
2022/02/25 06:21:57;;;;;;;35.33;15.35;;;;;;;-0.21;55.94;95712.59;5087341;28;20418;-78
2022/02/25 06:24:22;;;;;;;39.47;16.10;;;;;;;-0.15;56.15;95711.34;5089305;28;20500;-77
2022/02/25 06:26:47;;;;;;;34.45;15.45;;;;;;;0.06;55.40;95709.06;5086857;28;20028;-80
2022/02/25 06:29:13;;;;;;;26.88;14.23;;;;;;;0.25;55.47;95710.41;5088067;28;20020;-79
2022/02/25 06:31:38;;;;;;;30.30;15.18;;;;;;;0.38;55.36;95717.47;5086490;28;20024;-78
2022/02/25 06:34:04;;;;;;;27.75;14.80;;;;;;;0.58;54.93;95708.16;5089101;28;20157;-77
2022/02/25 06:36:29;;;;;;;29.58;15.55;;;;;;;0.83;54.51;95707.25;5086687;28;20024;-79
2022/02/25 06:38:55;;;;;;;29.05;15.73;;;;;;;1.10;54.14;95714.16;5089093;28;20082;-78
2022/02/25 06:41:23;;;;;;;30.83;14.88;;;;;;;1.28;53.73;95715.56;5088557;28;20025;-78
2022/02/25 06:43:48;;;;;;;28.33;13.85;;;;;;;1.45;53.59;95715.16;5088214;28;20411;-78
2022/02/25 06:46:14;;;;;;;29.15;14.65;;;;;;;1.50;53.54;95727.22;5088863;28;20028;-78
2022/02/25 06:48:40;;;;;;;25.65;14.95;;;;;;;1.51;53.61;95732.38;5086128;28;20031;-77
2022/02/25 06:51:06;;;;;;;29.50;15.30;;;;;;;1.65;54.34;95733.13;5089115;28;20031;-77
2022/02/25 06:53:31;;;;;;;28.48;15.40;;;;;;;1.54;54.86;95732.16;5087089;28;20251;-78
2022/02/25 06:55:57;;;;;;;28.25;15.75;;;;;;;1.52;55.07;95725.25;5088884;28;20016;-78
2022/02/25 06:58:22;;;;;;;28.00;14.82;;;;;;;1.79;54.07;95713.63;5086436;28;20100;-78
2022/02/25 07:00:48;;;;;;;22.77;14.00;;;;;;;2.00;53.76;95716.41;5088303;28;20029;-78
2022/02/25 07:03:13;;;;;;;35.15;15.75;;;;;;;2.07;53.11;95719.44;5087192;28;20460;-78
2022/02/25 07:05:39;;;;;;;31.35;15.10;;;;;;;2.21;52.84;95723.66;5086491;28;20046;-77
2022/02/25 07:08:05;;;;;;;28.60;15.45;;;;;;;2.20;53.07;95714.06;5088642;28;20032;-78
2022/02/25 07:10:35;;;;;;;35.15;17.17;;;;;;;2.32;53.27;95709.63;5085339;28;20063;-76
2022/02/25 07:13:01;;;;;;;36.55;15.60;;;;;;;2.45;52.85;95713.00;5070599;28;20520;-78
2022/02/25 07:15:26;;;;;;;26.85;15.05;;;;;;;2.42;53.04;95709.75;5085855;28;20040;-78
2022/02/25 07:17:52;;;;;;;29.05;14.75;;;;;;;2.41;52.88;95713.34;5088412;28;20062;-79
2022/02/25 07:20:17;;;;;;;28.88;12.88;;;;;;;2.30;52.73;95707.09;5086651;28;20028;-78
2022/02/25 07:22:42;;;;;;;21.13;12.40;;;;;;;2.40;53.04;95709.84;5087661;28;20047;-77
2022/02/25 07:25:08;;;;;;;22.33;11.80;;;;;;;2.57;52.58;95711.19;5087113;28;20517;-79
2022/02/25 07:27:33;;;;;;;22.48;11.45;;;;;;;2.61;52.85;95713.59;5086494;28;20119;-79
2022/02/25 07:29:59;;;;;;;20.42;11.43;;;;;;;2.55;53.17;95705.16;5087098;28;20024;-78
2022/02/25 07:32:26;;;;;;;21.65;11.68;;;;;;;2.55;53.05;95710.47;5086442;28;20039;-77
2022/02/25 07:34:52;;;;;;;24.67;13.50;;;;;;;2.68;53.16;95704.19;5088061;28;20101;-77
2022/02/25 07:37:17;;;;;;;21.92;12.32;;;;;;;2.84;53.16;95701.19;5086823;28;20028;-77
2022/02/25 07:39:43;;;;;;;22.95;12.80;;;;;;;2.91;53.01;95698.88;5086440;28;20024;-77
2022/02/25 07:42:08;;;;;;;24.67;12.10;;;;;;;3.20;52.78;95698.34;5087805;28;20083;-78
2022/02/25 07:44:34;;;;;;;21.95;12.57;;;;;;;3.32;52.57;95697.34;5086809;28;20035;-78
2022/02/25 07:46:59;;;;;;;24.80;13.50;;;;;;;3.59;52.29;95697.88;5087026;28;20020;-80
2022/02/25 07:49:25;;;;;;;28.95;14.65;;;;;;;3.84;51.31;95706.41;5086562;28;20031;-78
2022/02/25 07:51:52;;;;;;;25.75;14.80;;;;;;;4.02;50.68;95705.84;5088006;28;20111;-78
2022/02/25 07:54:19;;;;;;;27.80;13.80;;;;;;;4.05;50.95;95711.75;5067922;28;20493;-77
2022/02/25 07:56:45;;;;;;;24.98;13.85;;;;;;;4.10;50.97;95703.38;5087690;28;20069;-77
2022/02/25 07:59:12;;;;;;;26.50;14.15;;;;;;;4.19;51.67;95707.91;5087195;28;20091;-78
2022/02/25 08:01:38;;;;;;;23.20;14.15;;;;;;;4.32;51.30;95705.06;5086360;28;20043;-78
2022/02/25 08:04:03;;;;;;;23.33;13.75;;;;;;;4.50;50.51;95699.13;5087539;28;20055;-78
2022/02/25 08:06:29;;;;;;;29.48;14.55;;;;;;;4.63;49.99;95695.41;5085657;28;20462;-78
2022/02/25 08:08:54;;;;;;;24.45;13.73;;;;;;;4.71;49.64;95684.94;5087568;28;20020;-79
2022/02/25 08:11:19;;;;;;;28.52;14.50;;;;;;;4.77;49.42;95687.06;5085925;28;20422;-78
2022/02/25 08:13:45;;;;;;;23.88;13.73;;;;;;;4.81;49.32;95677.88;5085747;28;20493;-79
2022/02/25 08:16:10;;;;;;;24.35;14.18;;;;;;;4.86;49.06;95679.28;5086207;28;20083;-77
2022/02/25 08:18:36;;;;;;;25.55;14.05;;;;;;;4.98;49.08;95672.84;5068004;28;20032;-78
2022/02/25 08:21:01;;;;;;;25.40;14.63;;;;;;;5.06;48.84;95673.03;5085663;28;20031;-79
2022/02/25 08:23:27;;;;;;;22.52;13.90;;;;;;;5.24;48.11;95675.00;5085700;28;20024;-77
2022/02/25 08:25:52;;;;;;;20.45;13.32;;;;;;;5.42;48.61;95667.22;5087105;28;20070;-76
2022/02/25 08:28:18;;;;;;;19.35;13.05;;;;;;;5.43;48.86;95670.72;5085592;28;20069;-77
2022/02/25 08:30:43;;;;;;;20.00;13.05;;;;;;;5.49;47.62;95664.84;5085796;28;20032;-78
2022/02/25 08:33:09;;;;;;;22.42;11.13;;;;;;;5.64;47.11;95659.91;5085707;28;20024;-77
2022/02/25 08:35:34;;;;;;;20.33;11.27;;;;;;;5.85;46.98;95656.25;5086821;28;20020;-77
2022/02/25 08:38:03;;;;;;;26.10;11.45;;;;;;;6.03;45.55;95661.69;5068104;28;20032;-78
2022/02/25 08:40:28;;;;;;;21.42;12.23;;;;;;;6.06;45.67;95658.78;5084986;28;20521;-77
2022/02/25 08:42:54;;;;;;;21.58;11.93;;;;;;;5.74;46.64;95653.78;5086721;28;20024;-78
2022/02/25 08:45:19;;;;;;;29.40;13.93;;;;;;;5.64;46.20;95643.94;5085730;28;20027;-78
2022/02/25 08:47:45;;;;;;;22.58;14.13;;;;;;;5.65;47.49;95642.13;5086971;28;20047;-79
2022/02/25 08:50:11;;;;;;;25.70;14.13;;;;;;;5.58;47.18;95639.19;5084091;28;20020;-77
2022/02/25 08:52:36;;;;;;;23.90;12.20;;;;;;;5.55;46.58;95640.31;5085450;28;20523;-78
2022/02/25 08:55:02;;;;;;;21.45;11.35;;;;;;;5.60;46.53;95634.56;5085208;28;20403;-79
2022/02/25 08:57:27;;;;;;;26.80;11.95;;;;;;;5.79;46.82;95627.53;5085324;28;20079;-77
2022/02/25 08:59:52;;;;;;;19.90;11.23;;;;;;;6.02;46.17;95616.59;5085037;28;20034;-78
2022/02/25 09:02:18;;;;;;;18.67;11.60;;;;;;;6.23;46.48;95618.22;5085571;28;20040;-78
2022/02/25 09:04:44;;;;;;;17.38;11.20;;;;;;;5.97;45.84;95619.69;5085142;28;20562;-78
2022/02/25 09:07:10;;;;;;;19.92;11.90;;;;;;;6.14;45.93;95606.66;5083404;28;20095;-78
2022/02/25 09:09:35;;;;;;;21.63;11.65;;;;;;;6.37;45.99;95620.44;5085574;28;20460;-77
2022/02/25 09:12:01;;;;;;;17.95;10.93;;;;;;;6.26;44.81;95607.28;5084806;28;20501;-79
2022/02/25 09:14:28;;;;;;;22.25;10.88;;;;;;;6.49;44.76;95606.91;5085402;28;20028;-76
2022/02/25 09:16:53;;;;;;;16.65;10.32;;;;;;;6.44;45.64;95599.38;5085356;28;20502;-78
2022/02/25 09:19:19;;;;;;;17.88;11.10;;;;;;;6.58;45.53;95589.22;5084536;28;20028;-78
2022/02/25 09:21:44;;;;;;;19.48;11.18;;;;;;;6.80;44.49;95594.13;5067879;28;20031;-78
2022/02/25 09:24:10;;;;;;;20.75;12.38;;;;;;;6.69;44.51;95594.31;5050040;28;20028;-78
2022/02/25 09:26:35;;;;;;;22.33;11.80;;;;;;;6.85;44.73;95599.00;5085301;28;20492;-76
2022/02/25 09:29:01;;;;;;;25.00;13.55;;;;;;;6.98;44.59;95590.66;5083269;28;20079;-77
2022/02/25 09:31:27;;;;;;;19.08;13.05;;;;;;;7.08;44.21;95585.25;5090308;28;20325;-77
2022/02/25 09:33:52;;;;;;;22.83;13.50;;;;;;;7.02;44.97;95584.03;5087451;28;20032;-79
2022/02/25 09:36:18;;;;;;;22.60;14.13;;;;;;;7.25;43.43;95582.75;5089054;28;20028;-77
2022/02/25 09:38:43;;;;;;;28.50;14.48;;;;;;;7.33;43.73;95571.31;5089966;28;20402;-79
2022/02/25 09:41:08;;;;;;;27.08;14.82;;;;;;;7.44;43.69;95579.09;5087673;28;20027;-78
2022/02/25 09:43:34;;;;;;;24.30;14.02;;;;;;;7.42;42.63;95575.72;5072052;28;20024;-78
2022/02/25 09:46:01;;;;;;;28.75;15.93;;;;;;;7.44;43.38;95573.75;5088325;28;20024;-78
2022/02/25 09:48:26;;;;;;;26.50;16.17;;;;;;;7.30;43.64;95572.47;5090407;28;20028;-78
2022/02/25 09:50:52;;;;;;;22.90;14.88;;;;;;;7.31;42.53;95560.78;5088425;28;20089;-77
2022/02/25 09:53:21;;;;;;;26.67;16.25;;;;;;;7.54;43.15;95565.66;5089854;28;20027;-77
2022/02/25 09:55:46;;;;;;;25.40;15.43;;;;;;;7.52;42.12;95555.13;5087695;28;20032;-78
2022/02/25 09:58:12;;;;;;;28.92;15.27;;;;;;;7.48;42.00;95559.09;5087855;28;20414;-79
2022/02/25 10:00:39;;;;;;;21.73;14.90;;;;;;;7.52;41.68;95549.81;5089807;28;20081;-78
2022/02/25 10:03:13;;;;;;;20.45;14.15;;;;;;;7.54;41.92;95547.78;5053782;28;20024;-78
2022/02/25 10:05:39;;;;;;;21.02;13.32;;;;;;;7.63;41.71;95542.53;5088848;28;20020;-79
2022/02/25 10:08:14;;;;;;;20.35;12.57;;;;;;;7.87;41.97;95546.34;5087863;28;20020;-79
2022/02/25 10:10:46;;;;;;;18.70;12.00;;;;;;;7.68;40.11;95534.88;5089744;28;20104;-78
2022/02/25 10:13:13;;;;;;;16.80;9.37;;;;;;;7.55;39.10;95543.31;5088698;28;20032;-79
2022/02/25 10:15:39;;;;;;;20.13;9.98;;;;;;;7.65;40.51;95540.53;5070734;28;20081;-77
2022/02/25 10:18:14;;;;;;;19.23;10.57;;;;;;;7.78;40.30;95540.97;5088131;28;20020;-79
2022/02/25 10:20:39;;;;;;;15.40;9.40;;;;;;;7.91;39.31;95537.03;5086470;28;20020;-81
2022/02/25 10:23:22;;;;;;;14.15;8.48;;;;;;;7.99;37.66;95529.09;5089422;28;20024;-79
2022/02/25 10:25:47;;;;;;;16.52;9.40;;;;;;;8.00;37.94;95525.41;5086854;28;20044;-79
2022/02/25 10:28:13;;;;;;;23.52;11.50;;;;;;;8.04;39.00;95524.06;5087736;28;20452;-78
2022/02/25 10:30:39;;;;;;;15.10;9.98;;;;;;;7.93;39.09;95524.38;5088838;28;20023;-81
2022/02/25 10:33:04;;;;;;;15.82;10.27;;;;;;;7.97;39.06;95517.72;5088093;28;20032;-77
2022/02/25 10:35:38;;;;;;;17.25;9.93;;;;;;;7.93;39.35;95516.38;5088162;28;20130;-78
2022/02/25 10:38:14;;;;;;;14.93;8.55;;;;;;;8.13;38.84;95514.28;5087298;28;20626;-78
2022/02/25 10:40:41;;;;;;;12.80;8.38;;;;;;;8.21;38.48;95513.47;5088066;28;20064;-79
2022/02/25 10:43:11;;;;;;;17.10;9.30;;;;;;;8.31;38.88;95501.81;5085711;28;20524;-78
2022/02/25 10:45:38;;;;;;;16.63;8.68;;;;;;;8.40;36.66;95499.03;5054009;28;20028;-78
2022/02/25 10:48:05;;;;;;;11.27;7.13;;;;;;;8.52;35.93;95498.72;5087217;28;20089;-76
2022/02/25 10:50:48;;;;;;;13.73;7.68;;;;;;;8.52;35.53;95496.91;5069809;28;20036;-79
2022/02/25 10:53:15;;;;;;;11.13;7.85;;;;;;;8.50;36.34;95487.34;5087578;28;20028;-79
2022/02/25 10:55:41;;;;;;;12.25;7.13;;;;;;;8.50;35.95;95480.19;5052693;28;20039;-78
2022/02/25 10:58:06;;;;;;;12.45;6.68;;;;;;;8.66;36.22;95470.56;5088761;28;20024;-77
2022/02/25 11:00:32;;;;;;;11.93;7.35;;;;;;;8.69;37.06;95472.06;5069402;28;20035;-77
2022/02/25 11:03:01;;;;;;;16.73;7.00;;;;;;;8.72;36.68;95469.88;5088087;28;20032;-80
2022/02/25 11:05:33;;;;;;;12.50;6.63;;;;;;;8.78;36.11;95455.03;5070532;28;20020;-78
2022/02/25 11:08:00;;;;;;;10.50;6.00;;;;;;;8.82;35.50;95453.69;5069741;28;20054;-78
2022/02/25 11:10:27;;;;;;;9.90;6.07;;;;;;;8.92;35.19;95448.19;5088580;28;20035;-78
2022/02/25 11:12:53;;;;;;;9.02;5.70;;;;;;;8.98;35.99;95442.16;5085682;28;20479;-78
2022/02/25 11:15:21;;;;;;;8.88;5.70;;;;;;;9.14;36.38;95433.31;5070462;28;20027;-78
2022/02/25 11:17:47;;;;;;;9.18;5.70;;;;;;;9.30;35.82;95430.78;5085836;28;20028;-79
2022/02/25 11:20:13;;;;;;;10.85;5.47;;;;;;;9.41;34.62;95425.09;5069845;28;20114;-78
2022/02/25 11:22:40;;;;;;;7.85;4.32;;;;;;;9.46;34.02;95419.22;5088085;28;20024;-77